メインページ
METAR-TAF:

METAR-TAF

空港 :

ホッラマーバード, イラン

緯度: 33-26-11N, 経度: 048-17-09E, 海抜: 1155m

現時点の気象観測

当レポートは1時間16分前の16:51(UTC)に作成
東/北東の風 8kt
気温 9°C
湿度 40%
気圧 1021 hPa
視程10km以上
高度4500ftの雲はほとんどない
高度9000ftの雲は散在している

METAR: OICK 171651Z 07008KT 9999 FEW045 SCT090 09/M04 Q1021

時間: 21:37 (18:07 UTC)


TAF: 見つかりません

4,000以上の空港の気象観測と天気予報(METAR報とTAF報)

利用可能な観測所は地図上に黄色い丸と赤い丸で示す。

丸の上にカーソルを重ねると観測所名を参照できる。

次にクリックすると気象観測と天気予報を参照できる。

マップの切り替え:黒色「×」印の緑ボタンをクリックして拡大、「-」印の緑ボタンをクリックして縮小、緑色の三角印をクリックして隣りの地図に切り替え


METAR-TAF: